createdAt,value
2019-02-27T00:00:15.258Z,6.00
2019-02-27T00:01:35.809Z,6.00
2019-02-27T00:02:53.810Z,5.90
2019-02-27T00:04:11.034Z,5.90
2019-02-27T00:05:30.122Z,5.90
2019-02-27T00:06:47.904Z,5.90
2019-02-27T00:08:06.400Z,5.90
2019-02-27T00:09:32.659Z,5.80
2019-02-27T00:11:15.557Z,5.80
2019-02-27T00:12:32.660Z,5.80
2019-02-27T00:13:49.009Z,5.70
2019-02-27T00:15:06.018Z,5.70
2019-02-27T00:16:22.582Z,5.70
2019-02-27T00:17:39.197Z,5.60
2019-02-27T00:18:58.534Z,5.60
2019-02-27T00:20:14.792Z,5.60
2019-02-27T00:21:31.480Z,5.60
2019-02-27T00:22:50.806Z,5.50
2019-02-27T00:24:07.544Z,5.50
2019-02-27T00:25:24.185Z,5.50
2019-02-27T00:26:42.376Z,5.50
2019-02-27T00:27:59.643Z,5.50
2019-02-27T00:29:16.153Z,5.50
2019-02-27T00:30:32.797Z,5.50
2019-02-27T00:31:49.181Z,5.50
2019-02-27T00:33:05.515Z,5.40
2019-02-27T00:34:22.503Z,5.50
2019-02-27T00:35:39.640Z,5.50
2019-02-27T00:36:56.086Z,5.50
2019-02-27T00:38:12.518Z,5.50
2019-02-27T00:39:30.874Z,5.50
2019-02-27T00:40:47.501Z,5.40
2019-02-27T00:42:04.201Z,5.50
2019-02-27T00:43:21.085Z,5.50
2019-02-27T00:44:38.144Z,5.40
2019-02-27T00:45:54.653Z,5.50
2019-02-27T00:47:11.926Z,5.50
2019-02-27T00:48:28.538Z,5.40
2019-02-27T00:49:45.728Z,5.40
2019-02-27T00:51:02.502Z,5.40
2019-02-27T00:52:18.951Z,5.40
2019-02-27T00:53:35.686Z,5.40
2019-02-27T00:54:52.262Z,5.40
2019-02-27T00:56:11.979Z,5.30
2019-02-27T00:57:26.857Z,5.30
2019-02-27T00:58:43.324Z,5.30
2019-02-27T00:59:59.794Z,5.30
2019-02-27T01:01:16.816Z,5.30
2019-02-27T01:02:33.493Z,5.20
2019-02-27T01:03:50.244Z,5.20
2019-02-27T01:05:09.182Z,5.20
2019-02-27T01:06:24.921Z,5.20
2019-02-27T01:07:41.418Z,5.20
2019-02-27T01:08:57.737Z,5.10
2019-02-27T01:10:14.254Z,5.20
2019-02-27T01:11:30.957Z,5.10
2019-02-27T01:12:47.920Z,5.10
2019-02-27T01:14:04.604Z,5.10
2019-02-27T01:15:22.021Z,5.00
2019-02-27T01:16:38.430Z,4.90
2019-02-27T01:17:57.302Z,4.80
2019-02-27T01:19:13.653Z,4.70
2019-02-27T01:20:30.533Z,4.70
2019-02-27T01:21:47.541Z,4.70
2019-02-27T01:23:03.941Z,4.60
2019-02-27T01:24:20.380Z,4.60
2019-02-27T01:25:36.669Z,4.60
2019-02-27T01:26:53.088Z,4.60
2019-02-27T01:28:11.057Z,4.50
2019-02-27T01:29:28.253Z,4.50
2019-02-27T01:30:44.620Z,4.50
2019-02-27T01:32:01.113Z,4.50
2019-02-27T01:33:18.339Z,4.50
2019-02-27T01:34:35.036Z,4.50
2019-02-27T01:35:52.429Z,4.50
2019-02-27T01:37:09.480Z,4.50
2019-02-27T01:38:26.028Z,4.50
2019-02-27T01:39:44.696Z,4.50
2019-02-27T01:41:01.697Z,4.50
2019-02-27T01:42:18.643Z,4.50
2019-02-27T01:43:36.885Z,4.50
2019-02-27T01:44:54.517Z,4.50
2019-02-27T01:46:10.983Z,4.50
2019-02-27T01:47:27.567Z,4.50
2019-02-27T01:48:43.932Z,4.50
2019-02-27T01:50:00.881Z,4.50
2019-02-27T01:51:17.809Z,4.50
2019-02-27T01:52:34.705Z,4.50
2019-02-27T01:53:51.041Z,4.50
2019-02-27T01:55:07.624Z,4.60
2019-02-27T01:56:28.938Z,4.60
2019-02-27T01:57:42.653Z,4.60
2019-02-27T01:59:00.923Z,4.60
2019-02-27T02:00:17.847Z,4.50
2019-02-27T02:01:34.817Z,4.40
2019-02-27T02:02:51.852Z,4.40
2019-02-27T02:04:08.484Z,4.40
2019-02-27T02:05:27.441Z,4.50
2019-02-27T02:06:44.525Z,4.30
2019-02-27T02:08:01.069Z,4.30
2019-02-27T02:09:21.014Z,4.30
2019-02-27T02:10:36.459Z,4.20
2019-02-27T02:11:52.935Z,4.20
2019-02-27T02:13:09.391Z,4.20
2019-02-27T02:14:25.807Z,4.20
2019-02-27T02:15:43.169Z,4.20
2019-02-27T02:16:59.828Z,4.20
2019-02-27T02:18:16.368Z,4.20
2019-02-27T02:19:32.842Z,4.10
2019-02-27T02:20:50.923Z,4.10
2019-02-27T02:22:08.883Z,4.10
2019-02-27T02:23:27.042Z,4.10
2019-02-27T02:24:43.965Z,4.10
2019-02-27T02:26:01.362Z,4.10
2019-02-27T02:27:18.796Z,4.10
2019-02-27T02:28:35.564Z,4.00
2019-02-27T02:30:12.987Z,4.00
2019-02-27T02:31:29.445Z,4.00
2019-02-27T02:32:52.019Z,4.00
2019-02-27T02:34:05.505Z,4.00
2019-02-27T02:35:23.121Z,3.90
2019-02-27T02:36:40.594Z,3.90
2019-02-27T02:37:56.982Z,3.90
2019-02-27T02:39:17.945Z,3.80
2019-02-27T02:40:32.176Z,3.80
2019-02-27T02:41:51.006Z,3.90
2019-02-27T02:43:08.315Z,3.90
2019-02-27T02:44:24.769Z,3.90
2019-02-27T02:45:41.101Z,3.90
2019-02-27T02:46:57.633Z,3.90
2019-02-27T02:48:14.353Z,3.80
2019-02-27T02:49:31.109Z,3.80
2019-02-27T02:50:53.897Z,3.80
2019-02-27T02:52:06.175Z,3.80
2019-02-27T02:53:25.239Z,3.70
2019-02-27T02:54:52.036Z,3.70
2019-02-27T02:56:23.695Z,3.70
2019-02-27T02:58:07.979Z,3.70
2019-02-27T02:59:42.260Z,3.70
2019-02-27T03:00:58.567Z,3.70
2019-02-27T03:02:14.949Z,3.70
2019-02-27T03:03:36.033Z,3.80
2019-02-27T03:04:49.428Z,3.80
2019-02-27T03:06:05.983Z,3.80
2019-02-27T03:07:25.343Z,3.80
2019-02-27T03:08:42.685Z,3.80
2019-02-27T03:09:59.266Z,3.80
2019-02-27T03:11:19.071Z,3.80
2019-02-27T03:12:34.538Z,3.90
2019-02-27T03:13:51.479Z,3.90
2019-02-27T03:15:08.152Z,3.90
2019-02-27T03:16:25.345Z,3.90
2019-02-27T03:17:42.020Z,3.90
2019-02-27T03:19:04.595Z,3.90
2019-02-27T03:20:17.615Z,3.90
2019-02-27T03:21:34.470Z,4.00
2019-02-27T03:22:51.271Z,4.00
2019-02-27T03:24:07.977Z,4.00
2019-02-27T03:25:24.605Z,4.00
2019-02-27T03:26:59.017Z,4.00
2019-02-27T03:28:42.290Z,4.00
2019-02-27T03:29:58.659Z,4.00
2019-02-27T03:31:18.414Z,3.90
2019-02-27T03:32:41.359Z,3.90
2019-02-27T03:33:51.717Z,3.90
2019-02-27T03:35:08.375Z,3.90
2019-02-27T03:36:24.929Z,3.90
2019-02-27T03:37:48.028Z,3.90
2019-02-27T03:39:00.357Z,3.90
2019-02-27T03:40:18.472Z,3.90
2019-02-27T03:41:36.817Z,4.00
2019-02-27T03:42:53.900Z,3.90
2019-02-27T03:44:10.416Z,3.90
2019-02-27T03:45:30.627Z,3.90
2019-02-27T03:46:45.118Z,3.90
2019-02-27T03:48:01.719Z,3.90
2019-02-27T03:49:18.162Z,3.80
2019-02-27T03:50:34.883Z,3.80
2019-02-27T03:51:51.453Z,3.80
2019-02-27T03:53:11.013Z,3.80
2019-02-27T03:54:26.461Z,3.80
2019-02-27T03:55:43.013Z,3.70
2019-02-27T03:57:00.175Z,3.70
2019-02-27T03:58:17.229Z,3.60
2019-02-27T03:59:33.603Z,3.50
2019-02-27T04:00:53.818Z,3.40
2019-02-27T04:02:08.585Z,3.40
2019-02-27T04:03:25.106Z,3.40
2019-02-27T04:07:05.811Z,3.40
2019-02-27T04:08:48.977Z,3.30
2019-02-27T04:10:05.901Z,3.30
2019-02-27T04:11:23.184Z,3.30
2019-02-27T04:12:39.599Z,3.40
2019-02-27T04:14:03.356Z,3.40
2019-02-27T04:15:17.998Z,3.40
2019-02-27T04:16:33.214Z,3.40
2019-02-27T04:17:52.366Z,3.40
2019-02-27T04:19:07.917Z,3.40
2019-02-27T04:20:23.145Z,3.40
2019-02-27T04:21:47.285Z,3.40
2019-02-27T04:23:03.894Z,3.40
2019-02-27T04:24:22.528Z,3.50
2019-02-27T04:25:38.009Z,3.50
2019-02-27T04:27:02.125Z,3.50
2019-02-27T04:28:18.483Z,3.50
2019-02-27T04:29:34.981Z,3.50
2019-02-27T04:30:52.066Z,3.50
2019-02-27T04:32:09.644Z,3.50
2019-02-27T04:33:27.750Z,3.50
2019-02-27T04:34:44.200Z,3.50
2019-02-27T04:36:00.748Z,3.40
2019-02-27T04:37:17.721Z,3.40
2019-02-27T04:38:36.162Z,3.40
2019-02-27T04:39:52.669Z,3.40
2019-02-27T04:41:08.996Z,3.40
2019-02-27T04:42:26.475Z,3.40
2019-02-27T04:43:43.688Z,3.40
2019-02-27T04:45:00.108Z,3.40
2019-02-27T04:46:18.936Z,3.40
2019-02-27T04:47:36.407Z,3.40
2019-02-27T04:48:53.642Z,3.40
2019-02-27T04:50:11.309Z,3.40
2019-02-27T04:51:28.206Z,3.30
2019-02-27T04:52:44.984Z,3.30
2019-02-27T04:54:06.130Z,3.20
2019-02-27T04:55:20.024Z,3.20
2019-02-27T04:56:36.786Z,3.20
2019-02-27T04:57:54.009Z,3.20
2019-02-27T04:59:10.569Z,3.20
2019-02-27T05:00:27.675Z,3.20
2019-02-27T05:01:44.206Z,3.10
2019-02-27T05:03:00.773Z,3.10
2019-02-27T05:04:17.123Z,3.00
2019-02-27T05:05:33.636Z,2.90
2019-02-27T05:06:50.841Z,2.90
2019-02-27T05:08:07.929Z,2.90
2019-02-27T05:09:24.517Z,2.90
2019-02-27T05:10:41.266Z,2.90
2019-02-27T05:11:58.219Z,2.90
2019-02-27T05:13:15.427Z,2.90
2019-02-27T05:14:31.797Z,2.90
2019-02-27T05:15:48.749Z,2.80
2019-02-27T05:17:03.985Z,2.90
2019-02-27T05:18:29.504Z,2.90
2019-02-27T05:20:05.757Z,2.90
2019-02-27T05:21:22.269Z,3.00
2019-02-27T05:22:38.851Z,3.00
2019-02-27T05:23:55.258Z,3.00
2019-02-27T05:25:14.439Z,3.00
2019-02-27T05:26:31.161Z,3.00
2019-02-27T05:27:47.915Z,3.00
2019-02-27T05:29:04.378Z,3.00
2019-02-27T05:30:20.834Z,3.00
2019-02-27T05:31:39.407Z,3.00
2019-02-27T05:32:55.952Z,3.10
2019-02-27T05:34:13.697Z,3.10
2019-02-27T05:35:30.431Z,3.10
2019-02-27T05:36:47.559Z,3.10
2019-02-27T05:38:04.128Z,3.10
2019-02-27T05:39:20.724Z,3.00
2019-02-27T05:40:37.111Z,2.90
2019-02-27T05:41:53.819Z,2.90
2019-02-27T05:43:13.163Z,2.90
2019-02-27T05:44:29.744Z,2.80
2019-02-27T05:45:46.290Z,2.80
2019-02-27T05:47:02.677Z,2.80
2019-02-27T05:48:20.059Z,2.80
2019-02-27T05:49:37.309Z,2.80
2019-02-27T05:50:53.966Z,2.80
2019-02-27T05:52:11.833Z,2.80
2019-02-27T05:53:28.912Z,2.70
2019-02-27T05:54:45.356Z,2.80
2019-02-27T05:56:02.461Z,2.80
2019-02-27T05:57:21.026Z,2.80
2019-02-27T05:58:37.972Z,2.70
2019-02-27T05:59:54.483Z,2.70
2019-02-27T06:01:12.068Z,2.70
2019-02-27T06:02:28.442Z,2.70
2019-02-27T06:03:45.045Z,2.60
2019-02-27T06:05:02.118Z,2.60
2019-02-27T06:06:18.922Z,2.60
2019-02-27T06:07:35.463Z,2.60
2019-02-27T06:08:52.613Z,2.60
2019-02-27T06:10:09.002Z,2.70
2019-02-27T06:11:27.075Z,2.70
2019-02-27T06:12:44.000Z,2.80
2019-02-27T06:14:00.476Z,2.90
2019-02-27T06:15:17.753Z,3.00
2019-02-27T06:16:37.091Z,3.00
2019-02-27T06:17:53.625Z,3.00
2019-02-27T06:19:10.317Z,3.10
2019-02-27T06:20:26.714Z,3.10
2019-02-27T06:21:43.122Z,3.10
2019-02-27T06:23:04.087Z,3.20
2019-02-27T06:24:19.717Z,3.30
2019-02-27T06:25:36.060Z,3.40
2019-02-27T06:26:52.811Z,3.50
2019-02-27T06:28:09.266Z,3.60
2019-02-27T06:29:25.785Z,3.80
2019-02-27T06:30:42.097Z,4.10
2019-02-27T06:31:58.502Z,4.30
2019-02-27T06:33:14.811Z,4.60
2019-02-27T06:34:32.045Z,5.00
2019-02-27T06:35:49.461Z,5.30
2019-02-27T06:37:06.454Z,5.60
2019-02-27T06:38:24.998Z,5.90
2019-02-27T06:39:41.492Z,6.40
2019-02-27T06:40:59.343Z,6.90
2019-02-27T06:42:16.052Z,7.50
2019-02-27T06:43:33.207Z,8.20
2019-02-27T06:44:50.421Z,8.90
2019-02-27T06:46:07.180Z,9.50
2019-02-27T06:47:23.490Z,10.00
2019-02-27T06:48:43.041Z,10.60
2019-02-27T06:49:58.445Z,11.20
2019-02-27T06:51:14.933Z,11.70
2019-02-27T06:52:31.864Z,12.30
2019-02-27T06:53:48.365Z,13.00
2019-02-27T06:55:05.233Z,13.60
2019-02-27T06:56:10.352Z,14.20
2019-02-27T06:57:34.496Z,14.90
2019-02-27T06:58:39.544Z,15.30
2019-02-27T07:01:59.680Z,16.50
2019-02-27T07:03:16.573Z,17.40
2019-02-27T07:04:33.088Z,18.00
2019-02-27T07:05:50.068Z,18.60
2019-02-27T07:07:07.413Z,19.20
2019-02-27T07:08:23.946Z,19.70
2019-02-27T07:09:40.452Z,20.20
2019-02-27T07:10:58.985Z,20.80
2019-02-27T07:12:15.745Z,21.30
2019-02-27T07:13:32.123Z,21.80
2019-02-27T07:14:48.546Z,22.20
2019-02-27T07:16:05.797Z,22.50
2019-02-27T07:17:22.225Z,22.90
2019-02-27T07:18:41.442Z,22.90
2019-02-27T07:19:57.271Z,23.20
2019-02-27T07:21:13.213Z,23.40
2019-02-27T07:22:37.296Z,23.50
2019-02-27T07:23:57.730Z,24.00
2019-02-27T07:25:12.342Z,23.30
2019-02-27T07:26:29.011Z,23.80
2019-02-27T07:27:44.166Z,24.00
2019-02-27T07:29:00.920Z,24.50
2019-02-27T07:30:17.465Z,24.90
2019-02-27T07:31:34.894Z,25.20
2019-02-27T07:32:51.521Z,25.30
2019-02-27T07:34:06.777Z,25.80
2019-02-27T07:35:31.909Z,26.30
2019-02-27T07:36:48.401Z,26.30
2019-02-27T07:38:04.816Z,25.90
2019-02-27T07:39:21.949Z,26.50
2019-02-27T07:40:42.746Z,26.70
2019-02-27T07:41:57.376Z,25.60
2019-02-27T07:43:14.350Z,25.90
2019-02-27T07:44:32.229Z,26.30
2019-02-27T07:45:49.177Z,26.90
2019-02-27T07:47:06.393Z,27.50
2019-02-27T07:48:22.854Z,27.90
2019-02-27T07:49:39.499Z,28.20
2019-02-27T07:50:55.867Z,28.40
2019-02-27T07:52:12.318Z,28.70
2019-02-27T07:53:29.084Z,29.20
2019-02-27T07:54:44.381Z,29.40
2019-02-27T07:56:09.441Z,29.70
2019-02-27T07:57:26.345Z,30.00
2019-02-27T07:58:42.980Z,30.20
2019-02-27T07:59:59.422Z,30.30
2019-02-27T08:01:16.478Z,30.30
2019-02-27T08:02:33.729Z,30.60
2019-02-27T08:03:51.948Z,31.00
2019-02-27T08:05:08.308Z,31.00
2019-02-27T08:06:24.841Z,31.40
2019-02-27T08:07:41.335Z,31.20
2019-02-27T08:08:58.331Z,30.70
2019-02-27T08:10:14.870Z,31.10
2019-02-27T08:11:31.946Z,31.60
2019-02-27T08:12:48.337Z,31.30
2019-02-27T08:14:05.762Z,31.30
2019-02-27T08:15:22.073Z,31.60
2019-02-27T08:16:38.593Z,30.80
2019-02-27T08:17:57.957Z,31.30
2019-02-27T08:19:13.221Z,31.30
2019-02-27T08:20:29.653Z,30.10
2019-02-27T08:21:46.962Z,30.40
2019-02-27T08:23:03.636Z,30.10
2019-02-27T08:24:20.100Z,30.20
2019-02-27T08:25:36.860Z,31.00
2019-02-27T08:26:52.065Z,30.20
2019-02-27T08:28:16.172Z,29.60
2019-02-27T08:29:32.593Z,30.50
2019-02-27T08:30:48.994Z,31.30
2019-02-27T08:32:05.676Z,31.90
2019-02-27T08:33:22.877Z,30.90
2019-02-27T08:34:39.181Z,30.40
2019-02-27T08:35:55.679Z,29.80
2019-02-27T08:37:12.378Z,30.50
2019-02-27T08:38:28.870Z,29.40
2019-02-27T08:39:45.266Z,29.00
2019-02-27T08:41:01.838Z,27.60
2019-02-27T08:42:19.103Z,27.50
2019-02-27T08:43:35.480Z,28.40
2019-02-27T08:44:51.848Z,29.50
2019-02-27T08:46:09.295Z,30.60
2019-02-27T08:47:25.846Z,31.50
2019-02-27T08:48:42.492Z,32.30
2019-02-27T08:49:58.997Z,32.90
2019-02-27T08:51:16.149Z,33.60
2019-02-27T08:52:33.030Z,33.60
2019-02-27T08:53:50.121Z,34.10
2019-02-27T08:55:06.979Z,34.60
2019-02-27T08:56:23.434Z,34.00
2019-02-27T08:57:40.005Z,34.40
2019-02-27T08:58:56.873Z,34.70
2019-02-27T09:00:14.431Z,34.70
2019-02-27T09:01:32.175Z,34.70
2019-02-27T09:02:49.217Z,34.60
2019-02-27T09:04:06.233Z,34.30
2019-02-27T09:05:22.985Z,33.90
2019-02-27T09:06:39.397Z,33.70
2019-02-27T09:07:55.977Z,33.80
2019-02-27T09:09:14.995Z,33.70
2019-02-27T09:10:31.409Z,33.80
2019-02-27T09:11:48.245Z,33.80
2019-02-27T09:13:06.063Z,33.70
2019-02-27T09:14:23.182Z,33.90
2019-02-27T09:15:41.626Z,34.30
2019-02-27T09:16:57.956Z,34.80
2019-02-27T09:18:14.476Z,35.40
2019-02-27T09:19:30.920Z,35.60
2019-02-27T09:20:47.294Z,36.10
2019-02-27T09:22:03.725Z,36.30
2019-02-27T09:23:20.299Z,36.40
2019-02-27T09:24:37.347Z,36.60
2019-02-27T09:25:57.186Z,36.90
2019-02-27T09:27:11.983Z,37.20
2019-02-27T09:28:28.679Z,37.10
2019-02-27T09:29:45.440Z,36.70
2019-02-27T09:31:04.313Z,36.60
2019-02-27T09:32:23.768Z,36.90
2019-02-27T09:33:40.699Z,37.20
2019-02-27T09:34:59.604Z,37.60
2019-02-27T09:36:16.321Z,38.00
2019-02-27T09:37:32.940Z,38.40
2019-02-27T09:38:49.585Z,38.90
2019-02-27T09:40:06.058Z,39.30
2019-02-27T09:41:23.298Z,39.70
2019-02-27T09:42:40.421Z,39.60
2019-02-27T09:43:58.611Z,39.70
2019-02-27T09:45:14.873Z,39.60
2019-02-27T09:46:31.229Z,38.30
2019-02-27T09:47:47.733Z,36.60
2019-02-27T09:49:06.830Z,37.20
2019-02-27T09:50:22.923Z,37.70
2019-02-27T09:51:39.253Z,38.00
2019-02-27T09:52:56.017Z,36.10
2019-02-27T09:54:13.296Z,35.60
2019-02-27T09:55:30.487Z,35.40
2019-02-27T09:56:47.113Z,35.40
2019-02-27T09:57:52.137Z,35.10
2019-02-27T10:01:03.183Z,33.50
2019-02-27T10:02:33.548Z,33.70
2019-02-27T10:03:52.083Z,33.70
2019-02-27T10:05:01.488Z,33.90
2019-02-27T10:06:28.653Z,33.60
2019-02-27T10:07:45.113Z,34.10
2019-02-27T10:09:01.441Z,33.30
2019-02-27T10:10:20.033Z,33.50
2019-02-27T10:11:36.682Z,33.00
2019-02-27T10:12:53.184Z,33.50
2019-02-27T10:14:09.904Z,32.90
2019-02-27T10:15:27.261Z,32.00
2019-02-27T10:16:43.966Z,31.10
2019-02-27T10:18:01.228Z,31.40
2019-02-27T10:19:17.843Z,31.70
2019-02-27T10:20:36.992Z,32.30
2019-02-27T10:21:52.665Z,32.90
2019-02-27T10:23:09.497Z,33.60
2019-02-27T10:24:26.696Z,34.00
2019-02-27T10:25:44.110Z,34.50
2019-02-27T10:27:00.693Z,35.00
2019-02-27T10:28:17.159Z,35.50
2019-02-27T10:29:34.764Z,35.70
2019-02-27T10:30:51.905Z,35.80
2019-02-27T10:32:08.336Z,35.40
2019-02-27T10:33:25.873Z,35.80
2019-02-27T10:34:42.341Z,36.10
2019-02-27T10:36:03.353Z,36.30
2019-02-27T10:37:18.980Z,36.40
2019-02-27T10:38:40.315Z,36.40
2019-02-27T10:39:54.314Z,36.40
2019-02-27T10:41:11.050Z,36.10
2019-02-27T10:42:27.421Z,35.60
2019-02-27T10:43:43.812Z,35.20
2019-02-27T10:45:00.724Z,35.00
2019-02-27T10:46:17.253Z,34.80
2019-02-27T10:47:36.557Z,32.90
2019-02-27T10:48:52.989Z,32.00
2019-02-27T10:50:09.746Z,31.70
2019-02-27T10:51:26.920Z,31.50
2019-02-27T10:52:43.426Z,31.30
2019-02-27T10:54:04.667Z,30.90
2019-02-27T10:55:16.829Z,30.60
2019-02-27T10:56:41.018Z,30.10
2019-02-27T10:57:57.333Z,29.50
2019-02-27T10:59:13.853Z,29.00
2019-02-27T11:00:30.813Z,28.70
2019-02-27T11:01:47.297Z,28.10
2019-02-27T11:03:04.025Z,27.40
2019-02-27T11:04:20.549Z,26.80
2019-02-27T11:05:37.101Z,26.00
2019-02-27T11:06:53.435Z,25.40
2019-02-27T11:08:10.223Z,24.80
2019-02-27T11:09:29.328Z,24.40
2019-02-27T11:10:44.452Z,23.90
2019-02-27T11:12:08.638Z,23.50
2019-02-27T11:13:25.525Z,23.10
2019-02-27T11:14:42.877Z,22.60
2019-02-27T11:15:59.869Z,22.20
2019-02-27T11:17:16.277Z,21.70
2019-02-27T11:18:33.058Z,21.30
2019-02-27T11:19:49.848Z,21.00
2019-02-27T11:21:06.993Z,20.70
2019-02-27T11:22:24.080Z,20.50
2019-02-27T11:23:41.768Z,20.30
2019-02-27T11:24:49.160Z,20.00
2019-02-27T11:26:02.616Z,19.80
2019-02-27T11:27:19.090Z,19.60
2019-02-27T11:28:35.340Z,19.50
2019-02-27T11:29:51.705Z,19.40
2019-02-27T11:31:10.924Z,19.30
2019-02-27T11:32:27.402Z,19.20
2019-02-27T11:33:43.853Z,19.20
2019-02-27T11:35:00.254Z,19.10
2019-02-27T11:36:17.626Z,19.00
2019-02-27T11:37:34.853Z,18.90
2019-02-27T11:38:51.567Z,18.70
2019-02-27T11:40:08.491Z,18.60
2019-02-27T11:41:25.631Z,18.60
2019-02-27T11:42:42.223Z,18.40
2019-02-27T11:43:59.032Z,18.50
2019-02-27T11:45:16.167Z,18.40
2019-02-27T11:46:35.097Z,18.50
2019-02-27T11:47:51.682Z,18.40
2019-02-27T11:49:08.362Z,18.40
2019-02-27T11:50:25.025Z,18.30
2019-02-27T11:51:41.606Z,18.30
2019-02-27T11:53:01.825Z,18.30
2019-02-27T11:54:17.213Z,18.20
2019-02-27T11:55:33.660Z,18.20
2019-02-27T11:56:51.462Z,18.30
2019-02-27T11:58:09.117Z,18.30
2019-02-27T11:59:25.763Z,18.30
2019-02-27T12:00:42.316Z,18.30
2019-02-27T12:01:59.576Z,18.30
2019-02-27T12:03:16.029Z,18.40
2019-02-27T12:04:32.424Z,18.40
2019-02-27T12:05:48.973Z,18.40
2019-02-27T12:07:05.372Z,18.30
2019-02-27T12:08:22.451Z,18.20
2019-02-27T12:09:40.439Z,18.20
2019-02-27T12:10:57.357Z,18.30
2019-02-27T12:12:13.876Z,18.30
2019-02-27T12:13:32.296Z,18.40
2019-02-27T12:14:48.937Z,18.40
2019-02-27T12:16:05.364Z,18.30
2019-02-27T12:17:23.226Z,18.30
2019-02-27T12:18:46.425Z,18.40
2019-02-27T12:20:03.583Z,18.50
2019-02-27T12:21:21.145Z,18.50
2019-02-27T12:22:38.217Z,18.50
2019-02-27T12:23:55.092Z,18.60
2019-02-27T12:25:12.006Z,18.70
2019-02-27T12:26:28.453Z,18.80
2019-02-27T12:27:49.235Z,18.80
2019-02-27T12:29:03.390Z,18.80
2019-02-27T12:30:20.452Z,18.80
2019-02-27T12:31:37.085Z,18.80
2019-02-27T12:32:56.650Z,18.90
2019-02-27T12:34:11.312Z,19.00
2019-02-27T12:35:35.392Z,19.00
2019-02-27T12:36:52.547Z,19.00
2019-02-27T12:38:11.395Z,19.10
2019-02-27T12:39:28.292Z,19.10
2019-02-27T12:40:45.389Z,19.10
2019-02-27T12:42:04.168Z,19.20
2019-02-27T12:43:20.422Z,19.20
2019-02-27T12:44:37.617Z,19.20
2019-02-27T12:45:54.046Z,19.30
2019-02-27T12:47:09.173Z,19.20
2019-02-27T12:48:33.371Z,19.30
2019-02-27T12:49:51.551Z,19.30
2019-02-27T12:51:10.336Z,19.20
2019-02-27T12:52:26.748Z,19.10
2019-02-27T12:53:43.657Z,19.10
2019-02-27T12:55:01.791Z,19.00
2019-02-27T12:56:18.261Z,18.90
2019-02-27T12:57:34.899Z,19.00
2019-02-27T12:58:51.433Z,19.10
2019-02-27T13:00:08.518Z,19.00
2019-02-27T13:01:25.868Z,19.10
2019-02-27T13:02:42.898Z,19.00
2019-02-27T13:04:00.114Z,19.10
2019-02-27T13:05:16.637Z,19.20
2019-02-27T13:06:37.150Z,19.30
2019-02-27T13:07:51.677Z,19.40
2019-02-27T13:09:08.330Z,19.40
2019-02-27T13:10:25.408Z,19.50
2019-02-27T13:11:44.886Z,19.50
2019-02-27T13:13:00.686Z,19.50
2019-02-27T13:14:17.333Z,19.60
2019-02-27T13:15:33.690Z,19.70
2019-02-27T13:16:50.302Z,19.70
2019-02-27T13:18:07.866Z,19.70
2019-02-27T13:19:24.581Z,19.80
2019-02-27T13:20:43.055Z,19.80
2019-02-27T13:21:59.542Z,19.90
2019-02-27T13:23:15.945Z,20.00
2019-02-27T13:24:33.217Z,20.10
2019-02-27T13:25:50.344Z,20.10
2019-02-27T13:27:09.272Z,20.10
2019-02-27T13:28:25.041Z,20.20
2019-02-27T13:29:40.251Z,20.20
2019-02-27T13:31:04.365Z,20.30
2019-02-27T13:32:20.697Z,20.40
2019-02-27T13:33:38.932Z,20.40
2019-02-27T13:34:55.766Z,20.40
2019-02-27T13:36:12.817Z,20.40
2019-02-27T13:37:29.723Z,20.50
2019-02-27T13:38:46.035Z,20.60
2019-02-27T13:40:02.906Z,20.60
2019-02-27T13:41:19.445Z,20.70
2019-02-27T13:42:36.101Z,20.70
2019-02-27T13:43:52.836Z,20.80
2019-02-27T13:45:12.559Z,20.90
2019-02-27T13:46:28.914Z,20.90
2019-02-27T13:47:45.649Z,21.00
2019-02-27T13:49:01.016Z,20.90
2019-02-27T13:50:26.800Z,20.70
2019-02-27T13:52:12.471Z,20.80
2019-02-27T13:53:47.341Z,20.70
2019-02-27T13:55:04.454Z,20.70
2019-02-27T13:56:20.760Z,20.60
2019-02-27T13:57:37.250Z,20.60
2019-02-27T13:58:53.717Z,20.50
2019-02-27T14:00:10.301Z,20.40
2019-02-27T14:01:28.555Z,20.40
2019-02-27T14:02:45.490Z,20.20
2019-02-27T14:04:02.745Z,20.20
2019-02-27T14:05:19.211Z,20.30
2019-02-27T14:06:35.637Z,20.20
2019-02-27T14:07:50.789Z,20.20
2019-02-27T14:09:15.016Z,20.10
2019-02-27T14:10:31.955Z,20.00
2019-02-27T14:11:48.302Z,20.00
2019-02-27T14:13:08.791Z,19.80
2019-02-27T14:14:23.704Z,19.90
2019-02-27T14:15:40.384Z,19.90
2019-02-27T14:16:56.795Z,19.80
2019-02-27T14:18:16.205Z,19.80
2019-02-27T14:19:32.480Z,19.80
2019-02-27T14:20:49.184Z,19.80
2019-02-27T14:22:07.559Z,19.70
2019-02-27T14:23:24.445Z,19.70
2019-02-27T14:24:41.018Z,19.60
2019-02-27T14:25:57.993Z,19.70
2019-02-27T14:27:15.293Z,19.60
2019-02-27T14:28:31.852Z,19.80
2019-02-27T14:29:48.317Z,19.80
2019-02-27T14:31:09.266Z,19.90
2019-02-27T14:32:24.441Z,19.90
2019-02-27T14:33:41.109Z,19.90
2019-02-27T14:34:58.006Z,19.90
2019-02-27T14:36:16.210Z,19.70
2019-02-27T14:37:32.732Z,19.60
2019-02-27T14:38:49.257Z,19.50
2019-02-27T14:40:06.225Z,19.60
2019-02-27T14:41:22.625Z,19.70
2019-02-27T14:42:39.352Z,19.80
2019-02-27T14:43:57.590Z,19.80
2019-02-27T14:45:14.438Z,19.80
2019-02-27T14:46:30.990Z,19.80
2019-02-27T14:47:48.051Z,19.80
2019-02-27T14:49:05.366Z,19.80
2019-02-27T14:50:21.962Z,19.70
2019-02-27T14:51:41.185Z,19.60
2019-02-27T14:52:59.672Z,19.60
2019-02-27T14:54:16.577Z,19.70
2019-02-27T14:55:36.276Z,19.60
2019-02-27T14:56:51.445Z,19.50
2019-02-27T14:58:08.670Z,19.50
2019-02-27T14:59:25.126Z,19.50
2019-02-27T15:00:41.652Z,19.50
2019-02-27T15:01:58.556Z,19.50
2019-02-27T15:03:15.236Z,19.50
2019-02-27T15:04:32.438Z,19.50
2019-02-27T15:05:49.844Z,19.40
2019-02-27T15:07:06.125Z,19.40
2019-02-27T15:08:25.153Z,19.40
2019-02-27T15:09:47.593Z,19.50
2019-02-27T15:10:59.216Z,19.50
2019-02-27T15:12:19.481Z,19.60
2019-02-27T15:13:34.958Z,19.60
2019-02-27T15:14:51.658Z,19.60
2019-02-27T15:16:08.050Z,19.50
2019-02-27T15:17:25.108Z,19.50
2019-02-27T15:18:41.661Z,19.50
2019-02-27T15:20:00.906Z,19.50
2019-02-27T15:21:16.973Z,19.50
2019-02-27T15:22:33.586Z,19.50
2019-02-27T15:23:49.889Z,19.50
2019-02-27T15:25:08.181Z,19.30
2019-02-27T15:26:25.650Z,19.30
2019-02-27T15:27:42.569Z,19.20
2019-02-27T15:28:59.679Z,19.20
2019-02-27T15:30:16.820Z,19.10
2019-02-27T15:31:33.366Z,19.00
2019-02-27T15:32:49.688Z,19.00
2019-02-27T15:34:06.192Z,19.00
2019-02-27T15:35:22.257Z,18.90
2019-02-27T15:36:46.649Z,18.90
2019-02-27T15:38:04.697Z,18.90
2019-02-27T15:39:21.514Z,18.80
2019-02-27T15:40:38.582Z,18.70
2019-02-27T15:41:55.505Z,18.70
2019-02-27T15:43:11.821Z,18.80
2019-02-27T15:44:31.396Z,18.70
2019-02-27T15:45:49.625Z,18.70
2019-02-27T15:47:08.630Z,18.70
2019-02-27T15:48:25.093Z,18.60
2019-02-27T15:49:41.545Z,18.50
2019-02-27T15:50:58.257Z,18.40
2019-02-27T15:52:15.461Z,18.40
2019-02-27T15:53:32.078Z,18.30
2019-02-27T15:54:48.633Z,18.30
2019-02-27T15:56:08.690Z,18.30
2019-02-27T15:57:24.382Z,18.30
2019-02-27T15:58:40.688Z,18.20
2019-02-27T15:59:58.397Z,18.30
2019-02-27T16:01:15.116Z,18.30
2019-02-27T16:02:34.122Z,18.30
2019-02-27T16:03:49.909Z,18.30
2019-02-27T16:05:06.420Z,18.30
2019-02-27T16:06:22.656Z,18.20
2019-02-27T16:07:38.995Z,18.20
2019-02-27T16:08:58.248Z,18.20
2019-02-27T16:10:15.173Z,18.20
2019-02-27T16:11:31.937Z,18.20
2019-02-27T16:12:48.317Z,18.20
2019-02-27T16:14:09.166Z,18.20
2019-02-27T16:15:24.510Z,18.20
2019-02-27T16:16:41.564Z,18.10
2019-02-27T16:17:58.128Z,18.10
2019-02-27T16:19:14.518Z,18.10
2019-02-27T16:20:31.460Z,18.10
2019-02-27T16:21:48.038Z,18.00
2019-02-27T16:23:05.386Z,18.00
2019-02-27T16:24:22.531Z,17.90
2019-02-27T16:25:39.586Z,17.80
2019-02-27T16:26:58.008Z,17.70
2019-02-27T16:28:16.441Z,17.70
2019-02-27T16:29:32.906Z,17.70
2019-02-27T16:30:49.300Z,17.60
2019-02-27T16:32:05.996Z,17.50
2019-02-27T16:33:24.011Z,17.50
2019-02-27T16:34:41.285Z,17.40
2019-02-27T16:35:58.512Z,17.30
2019-02-27T16:37:14.963Z,17.40
2019-02-27T16:38:32.540Z,17.30
2019-02-27T16:39:49.165Z,17.20
2019-02-27T16:41:05.628Z,17.00
2019-02-27T16:42:22.004Z,16.90
2019-02-27T16:43:39.123Z,16.90
2019-02-27T16:44:57.437Z,16.90
2019-02-27T16:46:14.564Z,16.90
2019-02-27T16:47:33.613Z,16.80
2019-02-27T16:48:50.780Z,16.80
2019-02-27T16:50:07.118Z,16.70
2019-02-27T16:51:24.250Z,16.60
2019-02-27T16:52:42.077Z,16.60
2019-02-27T16:53:58.724Z,16.50
2019-02-27T16:55:15.508Z,16.50
2019-02-27T16:56:32.757Z,16.40